Time;durP1;ratioP1;P1;durP2;ratioP2;P2;SDS_P1;SDS_P2;PMS_P1;PMS_P2;Temp;Humidity;BMP_temperature;BMP_pressure;BME280_temperature;BME280_humidity;BME280_pressure;Samples;Min_cycle;Max_cycle;Signal;HPM_P1;HPM_P2
2023/01/02 00:00:21;;;;;;;7.90;2.20;;;;;;;11.55;100.00;100494.88;5197153;28;20455;-74
2023/01/02 00:02:51;;;;;;;10.77;2.53;;;;;;;11.54;100.00;100494.03;5216792;28;20033;-73
2023/01/02 00:05:22;;;;;;;6.60;2.33;;;;;;;11.57;100.00;100491.31;5222687;28;20036;-73
2023/01/02 00:07:52;;;;;;;9.02;2.15;;;;;;;11.36;100.00;100501.75;5223198;28;20441;-74
2023/01/02 00:10:22;;;;;;;8.45;2.35;;;;;;;11.29;100.00;100514.25;5220053;28;20025;-73
2023/01/02 00:12:52;;;;;;;12.35;2.70;;;;;;;11.22;100.00;100515.41;5216954;28;20036;-73
2023/01/02 00:15:23;;;;;;;8.88;2.78;;;;;;;11.36;100.00;100513.09;5223391;28;20438;-74
2023/01/02 00:17:53;;;;;;;11.80;2.90;;;;;;;11.37;100.00;100501.72;5222713;28;20055;-73
2023/01/02 00:20:23;;;;;;;9.15;2.70;;;;;;;11.36;100.00;100493.91;5213533;28;20068;-74
2023/01/02 00:22:54;;;;;;;9.52;2.45;;;;;;;11.36;100.00;100497.41;5210802;28;20037;-73
2023/01/02 00:25:24;;;;;;;13.10;3.10;;;;;;;11.36;100.00;100494.78;5222557;28;20448;-73
2023/01/02 00:27:55;;;;;;;13.52;2.80;;;;;;;11.35;100.00;100485.22;5211250;28;20080;-74
2023/01/02 00:30:26;;;;;;;13.65;3.55;;;;;;;11.29;100.00;100479.38;5216422;28;20116;-73
2023/01/02 00:32:56;;;;;;;8.25;2.70;;;;;;;11.23;100.00;100477.88;5222392;28;20033;-73
2023/01/02 00:35:26;;;;;;;9.90;2.70;;;;;;;11.25;100.00;100473.41;5214609;28;20486;-72
2023/01/02 00:37:56;;;;;;;9.57;2.67;;;;;;;11.15;100.00;100456.41;5207354;28;20037;-73
2023/01/02 00:40:27;;;;;;;9.07;3.03;;;;;;;11.14;100.00;100454.66;5220829;28;20075;-73
2023/01/02 00:42:57;;;;;;;9.52;2.80;;;;;;;11.09;100.00;100448.78;5218876;28;20573;-73
2023/01/02 00:45:27;;;;;;;8.80;2.38;;;;;;;10.92;100.00;100436.44;5222211;28;20024;-74
2023/01/02 00:47:58;;;;;;;6.32;2.38;;;;;;;10.98;100.00;100437.03;5216121;28;20394;-74
2023/01/02 00:50:28;;;;;;;9.60;2.75;;;;;;;11.05;100.00;100436.75;5222088;28;20539;-73
2023/01/02 00:52:58;;;;;;;14.13;2.85;;;;;;;11.12;100.00;100430.34;5208760;28;20030;-73
2023/01/02 00:55:29;;;;;;;11.32;3.00;;;;;;;11.17;100.00;100419.72;5214439;28;20108;-74
2023/01/02 00:57:59;;;;;;;10.80;2.92;;;;;;;11.13;100.00;100413.75;5210173;28;20081;-73
2023/01/02 01:00:29;;;;;;;8.77;2.17;;;;;;;11.08;100.00;100407.00;5215205;28;20284;-73
2023/01/02 01:03:00;;;;;;;11.43;2.60;;;;;;;11.11;100.00;100409.50;5217998;28;20466;-73
2023/01/02 01:05:30;;;;;;;14.90;2.80;;;;;;;11.15;100.00;100406.72;5220296;28;20048;-74
2023/01/02 01:08:00;;;;;;;8.23;2.60;;;;;;;11.02;100.00;100412.47;5221677;28;20112;-73
2023/01/02 01:10:31;;;;;;;15.50;2.83;;;;;;;11.14;100.00;100407.59;5202216;28;20025;-73
2023/01/02 01:13:02;;;;;;;9.60;2.60;;;;;;;11.13;100.00;100408.50;5210537;28;20033;-73
2023/01/02 01:15:33;;;;;;;10.57;3.15;;;;;;;11.06;100.00;100404.44;5205082;28;20119;-72
2023/01/02 01:18:03;;;;;;;8.45;2.80;;;;;;;10.99;100.00;100394.28;5204908;28;20025;-73
2023/01/02 01:20:37;;;;;;;8.32;2.50;;;;;;;10.91;100.00;100398.13;5205045;28;20055;-73
2023/01/02 01:23:08;;;;;;;12.65;2.90;;;;;;;10.88;100.00;100395.63;5211151;28;20095;-74
2023/01/02 01:25:38;;;;;;;10.57;2.55;;;;;;;10.92;100.00;100390.25;5214447;28;20490;-74
2023/01/02 01:28:08;;;;;;;10.45;3.10;;;;;;;10.95;100.00;100391.84;5209997;28;20025;-73
2023/01/02 01:30:38;;;;;;;10.95;2.83;;;;;;;10.80;100.00;100380.25;5214665;28;20053;-74
2023/01/02 01:33:09;;;;;;;5.75;2.45;;;;;;;10.81;100.00;100375.88;5204386;28;20033;-74
2023/01/02 01:35:39;;;;;;;12.95;2.50;;;;;;;10.62;100.00;100383.59;5211524;28;20025;-73
2023/01/02 01:38:09;;;;;;;10.88;2.55;;;;;;;10.59;100.00;100369.78;5219499;28;20043;-74
2023/01/02 01:40:39;;;;;;;10.48;2.80;;;;;;;10.53;100.00;100367.41;5220761;28;20032;-73
2023/01/02 01:43:13;;;;;;;9.95;2.47;;;;;;;10.49;100.00;100368.47;5221649;28;20031;-73
2023/01/02 01:45:44;;;;;;;9.00;2.80;;;;;;;10.51;100.00;100369.25;5213443;28;20448;-73
2023/01/02 01:48:16;;;;;;;9.25;2.50;;;;;;;10.55;100.00;100362.97;5221129;28;20082;-74
2023/01/02 01:50:46;;;;;;;9.40;2.50;;;;;;;10.54;100.00;100371.72;5197731;28;20037;-74
2023/01/02 01:53:20;;;;;;;7.65;2.55;;;;;;;10.61;100.00;100367.97;5205239;28;20025;-73
2023/01/02 01:55:54;;;;;;;6.97;2.78;;;;;;;10.69;100.00;100371.13;5206302;28;20028;-74
2023/01/02 01:58:32;;;;;;;8.88;2.90;;;;;;;10.56;100.00;100381.22;5209238;28;20025;-74
2023/01/02 02:01:03;;;;;;;9.05;2.40;;;;;;;10.57;100.00;100374.22;5214230;28;20044;-73
2023/01/02 02:03:35;;;;;;;9.23;2.83;;;;;;;10.63;100.00;100367.00;5216638;28;20045;-74
2023/01/02 02:06:05;;;;;;;9.43;2.50;;;;;;;10.62;100.00;100369.66;5220878;28;20037;-73
2023/01/02 02:08:49;;;;;;;12.05;2.67;;;;;;;10.62;100.00;100354.84;5219656;28;20028;-74
2023/01/02 02:11:19;;;;;;;8.32;2.17;;;;;;;10.64;100.00;100358.25;5207606;28;20067;-74
2023/01/02 02:13:50;;;;;;;11.90;2.85;;;;;;;10.65;100.00;100354.72;5220690;28;20044;-74
2023/01/02 02:16:32;;;;;;;7.55;2.78;;;;;;;10.67;100.00;100357.28;5220606;28;20029;-73
2023/01/02 02:19:22;;;;;;;9.50;2.33;;;;;;;10.67;100.00;100346.84;5215520;28;20032;-73
2023/01/02 02:22:08;;;;;;;6.93;2.67;;;;;;;10.80;100.00;100348.88;5206413;28;20036;-74
2023/01/02 02:25:06;;;;;;;10.13;2.63;;;;;;;10.74;100.00;100351.75;5218468;28;20033;-74
2023/01/02 02:27:54;;;;;;;7.65;2.50;;;;;;;10.80;100.00;100348.03;5189188;28;20029;-74
2023/01/02 02:30:32;;;;;;;10.82;2.83;;;;;;;10.85;100.00;100340.88;5208299;28;20048;-74
2023/01/02 02:33:44;;;;;;;7.68;2.70;;;;;;;10.89;100.00;100329.38;5220682;28;20024;-74
2023/01/02 02:36:25;;;;;;;9.45;2.55;;;;;;;10.99;100.00;100322.88;5213697;28;20053;-74
2023/01/02 02:39:02;;;;;;;8.73;2.55;;;;;;;11.10;100.00;100322.34;5218266;28;20086;-74
2023/01/02 02:41:57;;;;;;;6.65;2.40;;;;;;;11.09;100.00;100325.88;5199762;28;20048;-75
2023/01/02 02:44:45;;;;;;;11.77;2.25;;;;;;;11.11;100.00;100324.03;5216590;28;20037;-73
2023/01/02 02:47:37;;;;;;;5.25;1.92;;;;;;;11.10;100.00;100329.34;5213022;28;20021;-73
2023/01/02 02:50:12;;;;;;;10.80;2.47;;;;;;;11.11;100.00;100321.41;5208861;28;20046;-73
2023/01/02 02:52:53;;;;;;;11.77;2.40;;;;;;;11.10;100.00;100324.94;5201872;28;20091;-74
2023/01/02 02:55:33;;;;;;;12.30;2.60;;;;;;;11.05;100.00;100310.34;5201827;28;20094;-74
2023/01/02 02:58:05;;;;;;;8.82;2.17;;;;;;;11.12;100.00;100309.22;5210873;28;20037;-74
2023/01/02 03:00:35;;;;;;;7.15;1.75;;;;;;;11.25;100.00;100306.00;5207824;28;20498;-74
2023/01/02 03:03:20;;;;;;;6.68;2.20;;;;;;;11.24;100.00;100306.09;5220225;28;20067;-74
2023/01/02 03:05:59;;;;;;;6.57;2.20;;;;;;;11.42;100.00;100298.28;5213924;28;20498;-73
2023/01/02 03:08:39;;;;;;;7.25;1.85;;;;;;;11.82;100.00;100308.72;5213434;28;20039;-74
2023/01/02 03:11:11;;;;;;;9.98;2.00;;;;;;;12.25;100.00;100297.97;5219630;28;20028;-74
2023/01/02 03:14:01;;;;;;;16.95;2.15;;;;;;;12.62;100.00;100286.63;5219576;28;20036;-73
2023/01/02 03:16:42;;;;;;;9.68;2.25;;;;;;;12.68;100.00;100286.31;5211212;28;20025;-73
2023/01/02 03:19:21;;;;;;;7.93;1.85;;;;;;;12.96;98.51;100287.53;5219773;28;20083;-74
2023/01/02 03:21:59;;;;;;;7.55;2.03;;;;;;;13.00;98.40;100278.56;5205428;28;20514;-73
2023/01/02 03:24:31;;;;;;;9.70;2.20;;;;;;;13.20;96.22;100289.78;5204903;28;20061;-74
2023/01/02 03:27:06;;;;;;;11.60;2.05;;;;;;;13.26;95.76;100280.75;5205360;28;20037;-74
2023/01/02 03:29:47;;;;;;;6.30;1.70;;;;;;;13.38;94.87;100275.69;5208566;28;20029;-74
2023/01/02 03:32:24;;;;;;;6.45;1.90;;;;;;;13.50;93.14;100275.06;5208385;28;20115;-73
2023/01/02 03:34:57;;;;;;;11.07;2.30;;;;;;;13.59;93.64;100279.00;5219298;28;20468;-73
2023/01/02 03:37:33;;;;;;;7.07;1.75;;;;;;;13.49;93.13;100283.88;5214012;28;20466;-74
2023/01/02 03:40:10;;;;;;;8.70;1.73;;;;;;;13.57;92.56;100286.13;5218947;28;20446;-73
2023/01/02 03:42:48;;;;;;;8.13;2.00;;;;;;;13.63;92.36;100275.28;5219837;28;20033;-74
2023/01/02 03:45:29;;;;;;;6.05;1.75;;;;;;;13.64;92.02;100297.97;5209610;28;20030;-74
2023/01/02 03:48:09;;;;;;;12.27;1.75;;;;;;;13.67;91.36;100282.06;5216246;28;20036;-73
2023/01/02 03:50:45;;;;;;;6.45;1.70;;;;;;;13.83;90.75;100286.44;5214373;28;20037;-73
2023/01/02 03:53:16;;;;;;;8.05;2.05;;;;;;;13.81;91.69;100292.69;5203686;28;20102;-74
2023/01/02 03:56:16;;;;;;;6.05;1.52;;;;;;;13.86;91.76;100293.28;5219339;28;20028;-73
2023/01/02 03:59:11;;;;;;;7.28;1.70;;;;;;;13.76;91.46;100302.59;5198008;28;20052;-72
2023/01/02 04:01:48;;;;;;;6.57;1.95;;;;;;;13.85;91.46;100297.69;5212377;28;20410;-73
2023/01/02 04:04:46;;;;;;;7.80;1.73;;;;;;;13.84;90.53;100298.63;5194970;28;20056;-73
2023/01/02 04:07:29;;;;;;;10.73;1.90;;;;;;;13.79;89.93;100299.81;5196906;28;20037;-73
2023/01/02 04:10:01;;;;;;;6.32;1.73;;;;;;;13.94;89.90;100301.63;5219765;28;20025;-73
2023/01/02 04:12:34;;;;;;;8.48;1.92;;;;;;;14.02;88.67;100300.28;5216618;28;20035;-73
2023/01/02 04:15:08;;;;;;;7.90;2.00;;;;;;;13.96;89.05;100294.50;5204599;28;20025;-73
2023/01/02 04:17:48;;;;;;;8.55;1.95;;;;;;;14.03;89.45;100280.09;5222534;28;20533;-73
2023/01/02 04:20:33;;;;;;;8.88;1.90;;;;;;;13.95;89.09;100288.38;5209585;28;20398;-73
2023/01/02 04:23:18;;;;;;;8.85;1.65;;;;;;;13.98;89.35;100288.25;5203967;28;20033;-74
2023/01/02 04:25:56;;;;;;;5.20;1.60;;;;;;;13.93;88.98;100294.66;5216103;28;20079;-73
2023/01/02 04:28:32;;;;;;;7.80;1.98;;;;;;;13.92;89.52;100287.72;5213107;28;20638;-73
2023/01/02 04:31:12;;;;;;;10.60;2.13;;;;;;;13.86;89.85;100285.41;5222675;28;20041;-74
2023/01/02 04:33:46;;;;;;;9.57;2.00;;;;;;;13.88;89.99;100281.78;5214708;28;20029;-74
2023/01/02 04:36:17;;;;;;;4.88;1.92;;;;;;;13.97;88.84;100288.31;5210783;28;20027;-74
2023/01/02 04:38:47;;;;;;;8.98;2.20;;;;;;;14.00;88.27;100285.50;5220934;28;20853;-73
2023/01/02 04:41:25;;;;;;;14.40;2.08;;;;;;;14.01;88.72;100292.47;5222879;28;20025;-73
2023/01/02 04:43:56;;;;;;;7.45;1.83;;;;;;;13.93;88.98;100284.16;5222870;28;20151;-73
2023/01/02 04:46:28;;;;;;;11.35;2.10;;;;;;;14.06;88.70;100282.56;5214732;28;20458;-73
2023/01/02 04:48:58;;;;;;;9.27;1.85;;;;;;;14.14;87.97;100288.25;5221894;28;20025;-73
2023/01/02 04:51:28;;;;;;;5.72;2.10;;;;;;;14.08;88.14;100291.22;5213067;28;20059;-73
2023/01/02 04:53:58;;;;;;;7.70;1.88;;;;;;;14.32;87.14;100297.78;5214983;28;20433;-74
2023/01/02 04:56:29;;;;;;;9.93;1.95;;;;;;;14.16;86.82;100289.91;5205734;28;20087;-74
2023/01/02 04:58:59;;;;;;;4.80;1.55;;;;;;;14.21;86.93;100292.25;5203474;28;20071;-73
2023/01/02 05:01:29;;;;;;;7.57;1.50;;;;;;;14.18;87.01;100289.81;5204853;28;20035;-73
2023/01/02 05:04:00;;;;;;;8.32;2.08;;;;;;;14.18;86.75;100292.44;5202367;28;20108;-74
2023/01/02 05:06:31;;;;;;;8.23;1.80;;;;;;;14.09;87.59;100290.28;5203069;28;20024;-73
2023/01/02 05:09:01;;;;;;;9.07;2.20;;;;;;;14.09;87.72;100295.53;5208177;28;20389;-73
2023/01/02 05:11:32;;;;;;;10.43;1.83;;;;;;;14.21;86.97;100303.63;5185025;28;20051;-73
2023/01/02 05:14:02;;;;;;;10.48;2.38;;;;;;;14.23;87.05;100306.19;5198619;28;20029;-73
2023/01/02 05:16:32;;;;;;;8.07;2.10;;;;;;;14.23;86.79;100314.06;5203287;28;20033;-73
2023/01/02 05:19:02;;;;;;;9.82;2.15;;;;;;;14.33;86.31;100317.88;5204242;28;20489;-73
2023/01/02 05:24:22;;;;;;;6.85;1.70;;;;;;;14.33;85.97;100320.50;5205033;28;20559;-73
2023/01/02 05:26:53;;;;;;;13.63;2.03;;;;;;;14.35;86.13;100335.28;5205796;28;20021;-73
2023/01/02 05:29:23;;;;;;;6.63;1.95;;;;;;;14.29;86.30;100335.59;5199918;28;20033;-74
2023/01/02 05:31:54;;;;;;;9.00;1.98;;;;;;;14.35;85.27;100327.41;5205408;28;20037;-74
2023/01/02 05:34:24;;;;;;;7.75;1.83;;;;;;;14.38;85.78;100319.34;5202867;28;20144;-73
2023/01/02 05:36:54;;;;;;;7.85;1.85;;;;;;;14.31;86.10;100304.84;5202683;28;20083;-73
2023/01/02 05:39:25;;;;;;;8.70;1.92;;;;;;;14.28;86.25;100314.66;5204804;28;20032;-73
2023/01/02 05:41:55;;;;;;;12.65;2.40;;;;;;;14.24;86.59;100313.16;5205906;28;20175;-73
2023/01/02 05:44:25;;;;;;;9.23;1.90;;;;;;;14.37;86.30;100319.41;5207384;28;20056;-73
2023/01/02 05:46:56;;;;;;;8.07;1.83;;;;;;;14.25;86.79;100313.03;5205042;28;20316;-73
2023/01/02 05:49:26;;;;;;;7.03;1.80;;;;;;;14.14;87.47;100325.03;5215722;28;20124;-73
2023/01/02 05:51:56;;;;;;;8.98;1.88;;;;;;;14.12;87.06;100329.53;5209769;28;20502;-73
2023/01/02 05:54:27;;;;;;;9.90;2.20;;;;;;;14.19;86.94;100328.28;5217373;28;20032;-73
2023/01/02 05:56:57;;;;;;;9.57;2.00;;;;;;;14.09;87.02;100335.78;5212096;28;20025;-75
2023/01/02 05:59:27;;;;;;;7.57;2.05;;;;;;;14.03;87.77;100333.50;5208582;28;20482;-74
2023/01/02 06:01:57;;;;;;;11.90;2.00;;;;;;;14.06;86.93;100333.34;5221519;28;20281;-73
2023/01/02 06:04:28;;;;;;;8.32;1.80;;;;;;;14.10;87.24;100328.78;5215336;28;20021;-73
2023/01/02 06:06:58;;;;;;;6.70;1.63;;;;;;;14.02;86.81;100326.56;5220662;28;20438;-73
2023/01/02 06:09:28;;;;;;;12.65;2.30;;;;;;;14.11;86.70;100326.03;5218052;28;20158;-73
2023/01/02 06:11:59;;;;;;;10.38;1.70;;;;;;;14.09;86.98;100317.41;5211894;28;20041;-73
2023/01/02 06:14:29;;;;;;;13.10;2.13;;;;;;;14.06;87.33;100314.09;5208362;28;20037;-73
2023/01/02 06:17:00;;;;;;;9.13;2.15;;;;;;;14.09;87.35;100313.94;5217469;28;20550;-74
2023/01/02 06:19:31;;;;;;;9.85;1.95;;;;;;;14.10;87.20;100313.00;5213910;28;20163;-73
2023/01/02 06:22:01;;;;;;;9.70;2.10;;;;;;;14.17;86.69;100311.75;5217751;28;20072;-73
2023/01/02 06:24:31;;;;;;;6.93;1.70;;;;;;;14.22;85.74;100304.50;5218845;28;20033;-73
2023/01/02 06:27:02;;;;;;;9.00;2.05;;;;;;;14.22;86.44;100307.13;5215723;28;20432;-73
2023/01/02 06:29:32;;;;;;;5.82;1.75;;;;;;;14.21;86.52;100310.66;5206429;28;20246;-73
2023/01/02 06:32:03;;;;;;;8.85;1.98;;;;;;;14.12;86.95;100313.78;5218908;28;20111;-73
2023/01/02 06:34:33;;;;;;;10.32;1.85;;;;;;;14.05;86.90;100318.50;5220629;28;20055;-73
2023/01/02 06:37:03;;;;;;;9.57;2.20;;;;;;;14.04;87.37;100321.19;5198378;28;20060;-74
2023/01/02 06:39:34;;;;;;;12.88;2.00;;;;;;;14.06;86.91;100316.75;5236612;22;20044;-76
2023/01/02 06:42:04;;;;;;;9.55;1.90;;;;;;;14.16;86.72;100323.22;5223557;28;20028;-76
2023/01/02 06:44:34;;;;;;;8.00;2.22;;;;;;;14.17;86.15;100317.03;5226613;28;20120;-76
2023/01/02 06:47:04;;;;;;;6.47;1.67;;;;;;;14.22;85.85;100323.72;5223356;28;20524;-77
2023/01/02 06:49:35;;;;;;;9.98;1.90;;;;;;;14.33;85.21;100315.25;5217993;28;20112;-77
2023/01/02 06:52:05;;;;;;;9.98;2.00;;;;;;;14.32;85.95;100311.78;5215254;28;20107;-76
2023/01/02 06:54:35;;;;;;;10.55;1.90;;;;;;;14.25;85.96;100312.22;5214397;28;20075;-76
2023/01/02 06:57:06;;;;;;;9.40;2.10;;;;;;;14.29;85.50;100308.47;5207537;28;20025;-76
2023/01/02 06:59:36;;;;;;;10.93;2.08;;;;;;;14.28;86.02;100310.25;5191264;28;20028;-77
2023/01/02 07:02:09;;;;;;;9.88;1.95;;;;;;;14.23;86.23;100308.81;5204264;28;20025;-77
2023/01/02 07:04:40;;;;;;;13.05;2.25;;;;;;;14.22;86.61;100313.22;5211892;28;20453;-76
2023/01/02 07:07:10;;;;;;;11.30;2.03;;;;;;;14.25;86.69;100313.03;5212316;28;20108;-77
2023/01/02 07:09:40;;;;;;;7.72;2.10;;;;;;;14.24;86.97;100313.16;5203568;28;20041;-76
2023/01/02 07:12:11;;;;;;;11.55;2.20;;;;;;;14.20;87.13;100327.34;5198797;28;20191;-76
2023/01/02 07:14:41;;;;;;;8.52;2.20;;;;;;;14.17;88.03;100330.16;5212186;28;20036;-76
2023/01/02 07:17:11;;;;;;;9.80;2.05;;;;;;;14.06;88.45;100337.75;5206884;28;20041;-77
2023/01/02 07:19:41;;;;;;;7.88;2.10;;;;;;;13.99;90.11;100337.22;5202397;28;20395;-77
2023/01/02 07:22:12;;;;;;;6.38;1.65;;;;;;;14.03;90.61;100348.41;5206523;28;20033;-76
2023/01/02 07:24:42;;;;;;;11.07;2.20;;;;;;;14.06;89.89;100343.84;5214862;28;20525;-77
2023/01/02 07:27:12;;;;;;;8.32;2.08;;;;;;;14.01;91.37;100350.28;5207084;28;20414;-75
2023/01/02 07:29:43;;;;;;;10.45;2.17;;;;;;;13.93;92.08;100348.03;5209841;28;20109;-77
2023/01/02 07:32:13;;;;;;;9.93;1.80;;;;;;;13.98;91.59;100350.44;5207648;28;20029;-77
2023/01/02 07:34:43;;;;;;;12.60;2.20;;;;;;;13.99;91.68;100346.88;5195159;28;20037;-77
2023/01/02 07:37:13;;;;;;;10.85;1.95;;;;;;;14.07;90.64;100331.56;5210909;28;20033;-77
2023/01/02 07:39:44;;;;;;;9.45;1.90;;;;;;;14.11;90.28;100330.47;5188868;28;20068;-77
2023/01/02 07:42:14;;;;;;;7.85;1.80;;;;;;;13.98;90.06;100339.94;5207338;28;20091;-77
2023/01/02 07:44:44;;;;;;;7.97;2.15;;;;;;;13.92;90.57;100338.47;5209644;28;20438;-76
2023/01/02 07:47:14;;;;;;;11.27;1.80;;;;;;;13.95;90.77;100343.56;5211640;28;20072;-75
2023/01/02 07:49:45;;;;;;;9.70;1.75;;;;;;;13.85;90.23;100349.38;5196957;28;20033;-76
2023/01/02 07:52:15;;;;;;;8.32;1.83;;;;;;;13.95;89.84;100347.97;5208878;28;20472;-76
2023/01/02 07:54:45;;;;;;;9.55;1.85;;;;;;;14.00;89.40;100343.31;5198825;28;20033;-74
2023/01/02 07:57:16;;;;;;;14.63;2.10;;;;;;;14.03;89.39;100343.16;5208677;28;20502;-75
2023/01/02 07:59:46;;;;;;;7.43;2.10;;;;;;;14.03;88.95;100345.78;5196320;28;20648;-77
2023/01/02 08:02:16;;;;;;;8.02;2.00;;;;;;;14.05;89.12;100346.56;5216575;28;20651;-76
2023/01/02 08:04:49;;;;;;;8.07;1.98;;;;;;;14.05;87.81;100349.22;5218791;28;20033;-77
2023/01/02 08:07:21;;;;;;;7.63;1.83;;;;;;;14.06;87.93;100338.59;5208745;28;20021;-77
2023/01/02 08:09:52;;;;;;;6.72;1.80;;;;;;;14.13;87.39;100339.13;5199701;28;20025;-76
2023/01/02 08:12:22;;;;;;;10.18;2.03;;;;;;;14.23;87.14;100348.25;5215642;28;20050;-76
2023/01/02 08:14:52;;;;;;;8.00;1.80;;;;;;;14.26;86.22;100345.44;5216973;28;20094;-77
2023/01/02 08:17:23;;;;;;;7.78;2.10;;;;;;;14.28;86.85;100339.16;5221236;28;20037;-76
2023/01/02 08:19:53;;;;;;;9.52;2.33;;;;;;;14.28;86.21;100343.59;5199624;28;20473;-76
2023/01/02 08:22:23;;;;;;;8.50;1.90;;;;;;;14.30;86.02;100346.97;5212639;28;20038;-76
2023/01/02 08:24:54;;;;;;;9.88;2.20;;;;;;;14.36;85.15;100344.00;5215039;28;20319;-77
2023/01/02 08:27:24;;;;;;;9.55;1.83;;;;;;;14.33;85.69;100349.44;5216280;28;20625;-76
2023/01/02 08:29:54;;;;;;;13.27;2.30;;;;;;;14.40;85.41;100343.75;5206621;28;20094;-76
2023/01/02 08:32:25;;;;;;;8.38;1.85;;;;;;;14.39;85.10;100343.84;5221094;28;20115;-76
2023/01/02 08:34:55;;;;;;;7.57;1.50;;;;;;;14.49;84.51;100345.03;5221823;28;20545;-77
2023/01/02 08:37:25;;;;;;;8.80;1.83;;;;;;;14.51;83.76;100341.41;5213847;28;20486;-76
2023/01/02 08:39:55;;;;;;;11.73;1.75;;;;;;;14.54;83.66;100340.34;5210761;28;20242;-75
2023/01/02 08:42:26;;;;;;;4.97;1.52;;;;;;;14.54;84.08;100350.88;5212083;28;20057;-77
2023/01/02 08:44:56;;;;;;;7.28;1.90;;;;;;;14.48;83.46;100359.13;5194213;28;20223;-75
2023/01/02 08:47:26;;;;;;;11.32;2.53;;;;;;;14.49;83.37;100358.19;5211936;28;20030;-76
2023/01/02 08:49:56;;;;;;;6.32;1.50;;;;;;;14.43;84.05;100369.03;5207386;28;20044;-76
2023/01/02 08:52:27;;;;;;;6.93;1.77;;;;;;;14.57;83.53;100363.88;5208433;28;20029;-77
2023/01/02 08:54:59;;;;;;;7.90;1.67;;;;;;;14.51;83.70;100367.69;5197610;28;20120;-75
2023/01/02 08:57:30;;;;;;;7.13;1.70;;;;;;;14.59;83.96;100375.16;5210664;28;20028;-77
2023/01/02 09:00:02;;;;;;;10.43;1.80;;;;;;;14.60;83.45;100374.22;5212588;28;20386;-76
2023/01/02 09:02:32;;;;;;;10.43;2.00;;;;;;;14.62;83.42;100381.09;5206627;28;20032;-77
2023/01/02 09:05:03;;;;;;;10.95;2.20;;;;;;;14.63;84.04;100374.06;5215302;28;20251;-77
2023/01/02 09:07:33;;;;;;;10.45;2.30;;;;;;;14.77;82.89;100371.53;5213907;28;20045;-75
2023/01/02 09:10:04;;;;;;;7.95;1.90;;;;;;;14.67;83.09;100378.22;5195068;28;20029;-77
2023/01/02 09:12:35;;;;;;;9.68;2.03;;;;;;;14.68;83.00;100374.66;5190665;28;20039;-75
2023/01/02 09:15:06;;;;;;;7.00;1.80;;;;;;;14.66;83.37;100373.88;5204709;28;20667;-77
2023/01/02 09:17:36;;;;;;;7.90;2.17;;;;;;;14.62;83.32;100378.47;5211034;28;20486;-78
2023/01/02 09:20:07;;;;;;;11.40;1.90;;;;;;;14.63;83.47;100384.59;5202811;28;20037;-76
2023/01/02 09:22:39;;;;;;;10.40;2.03;;;;;;;14.63;83.48;100371.44;5202895;28;20028;-77
2023/01/02 09:25:09;;;;;;;6.35;1.77;;;;;;;14.61;82.64;100379.38;5205276;28;20045;-77
2023/01/02 09:27:39;;;;;;;10.50;2.00;;;;;;;14.67;82.89;100379.06;5205804;28;20033;-76
2023/01/02 09:30:10;;;;;;;5.25;1.52;;;;;;;14.69;83.12;100381.59;5187871;28;20039;-76
2023/01/02 09:32:41;;;;;;;6.75;1.98;;;;;;;14.67;83.45;100380.84;5199564;28;20505;-77
2023/01/02 09:35:11;;;;;;;8.20;1.70;;;;;;;14.64;83.48;100384.50;5186946;28;20130;-77
2023/01/02 09:37:41;;;;;;;5.47;1.50;;;;;;;14.62;84.00;100375.00;5192857;28;20025;-76
2023/01/02 09:40:13;;;;;;;6.82;1.80;;;;;;;14.73;82.91;100383.97;5200982;28;20052;-77
2023/01/02 09:42:44;;;;;;;11.27;2.17;;;;;;;14.72;82.25;100387.56;5202457;28;20076;-76
2023/01/02 09:45:14;;;;;;;8.32;2.30;;;;;;;14.75;82.99;100387.38;5201382;28;20710;-76
2023/01/02 09:47:46;;;;;;;7.13;1.80;;;;;;;14.72;82.98;100394.56;5205264;28;20110;-76
2023/01/02 09:50:26;;;;;;;6.93;1.90;;;;;;;14.77;82.16;100396.03;5200027;28;20116;-75
2023/01/02 09:52:59;;;;;;;9.35;1.98;;;;;;;14.82;82.81;100396.66;5191414;28;20029;-75
2023/01/02 09:55:41;;;;;;;10.73;1.85;;;;;;;14.83;82.66;100396.53;5202535;28;20097;-76
2023/01/02 09:58:29;;;;;;;12.63;2.10;;;;;;;14.91;82.10;100407.50;5205926;28;20071;-77
2023/01/02 10:01:00;;;;;;;9.95;2.20;;;;;;;15.16;80.90;100404.34;5189770;28;20041;-76
2023/01/02 10:03:33;;;;;;;10.05;2.22;;;;;;;15.16;81.72;100399.91;5208250;28;20390;-77
2023/01/02 10:06:20;;;;;;;8.27;1.92;;;;;;;14.96;81.10;100400.19;5208546;28;20050;-76
2023/01/02 10:09:05;;;;;;;6.80;1.88;;;;;;;14.97;81.32;100399.25;5205646;28;20043;-76
2023/01/02 10:11:41;;;;;;;6.65;1.90;;;;;;;15.05;81.52;100402.28;5206693;28;20059;-77
2023/01/02 10:14:22;;;;;;;10.18;2.15;;;;;;;14.94;81.70;100404.69;5195819;28;20102;-77
2023/01/02 10:16:56;;;;;;;10.18;2.15;;;;;;;15.06;82.01;100400.53;5210072;28;20045;-79
2023/01/02 10:19:41;;;;;;;11.27;1.70;;;;;;;15.04;81.87;100400.59;5212060;28;20022;-79
2023/01/02 10:22:17;;;;;;;6.90;1.90;;;;;;;14.98;81.53;100411.47;5203444;28;20091;-76
2023/01/02 10:25:01;;;;;;;8.27;1.80;;;;;;;15.06;81.58;100404.00;5211534;28;20037;-77
2023/01/02 10:27:38;;;;;;;8.63;2.17;;;;;;;15.01;81.30;100405.22;5198523;28;20415;-77
2023/01/02 10:30:22;;;;;;;6.60;2.00;;;;;;;14.96;81.99;100404.59;5197368;28;20024;-77
2023/01/02 10:32:59;;;;;;;9.20;2.10;;;;;;;14.95;80.68;100406.38;5199043;28;20045;-77
2023/01/02 10:35:39;;;;;;;8.85;1.75;;;;;;;14.95;81.25;100403.75;5199268;28;20506;-78
2023/01/02 10:38:13;;;;;;;8.95;2.05;;;;;;;15.08;82.31;100401.28;5203099;28;20045;-77
2023/01/02 10:40:45;;;;;;;11.07;1.95;;;;;;;14.88;81.81;100391.88;5198450;28;20029;-76
2023/01/02 10:43:17;;;;;;;11.00;2.00;;;;;;;14.96;81.83;100394.06;5200034;28;20037;-77
2023/01/02 10:45:47;;;;;;;10.63;1.92;;;;;;;14.98;80.92;100397.50;5183246;28;20024;-78
2023/01/02 10:48:20;;;;;;;9.32;2.08;;;;;;;14.95;81.05;100393.22;5205069;28;20030;-77
2023/01/02 10:50:55;;;;;;;10.55;2.13;;;;;;;14.94;81.32;100396.81;5203877;28;20128;-77
2023/01/02 10:53:35;;;;;;;8.68;1.70;;;;;;;14.94;81.95;100396.81;5200520;28;20033;-78
2023/01/02 10:56:17;;;;;;;7.65;2.45;;;;;;;14.86;81.38;100396.38;5199078;28;20051;-78
2023/01/02 10:58:49;;;;;;;7.43;1.70;;;;;;;14.92;81.67;100390.78;5183792;28;20433;-75
2023/01/02 11:01:21;;;;;;;7.85;2.17;;;;;;;15.00;81.57;100387.72;5198489;28;20024;-77
2023/01/02 11:03:54;;;;;;;9.63;2.40;;;;;;;14.94;81.71;100396.81;5197419;28;20538;-74
2023/01/02 11:06:29;;;;;;;8.70;1.85;;;;;;;14.98;80.92;100394.84;5199280;28;20028;-77
2023/01/02 11:09:01;;;;;;;10.73;1.75;;;;;;;14.93;81.77;100397.75;5196759;28;20592;-78
2023/01/02 11:11:32;;;;;;;8.70;1.83;;;;;;;14.94;81.46;100398.56;5200253;28;20499;-76
2023/01/02 11:14:07;;;;;;;9.10;1.85;;;;;;;15.06;82.37;100408.41;5198792;28;20055;-77
2023/01/02 11:16:39;;;;;;;10.65;2.47;;;;;;;14.96;81.59;100413.34;5200673;28;20021;-77
2023/01/02 11:19:18;;;;;;;9.57;2.00;;;;;;;14.95;82.04;100411.66;5186918;28;20526;-76
2023/01/02 11:21:51;;;;;;;8.13;2.10;;;;;;;15.04;81.22;100418.19;5198778;28;20364;-77
2023/01/02 11:24:25;;;;;;;16.08;2.42;;;;;;;14.97;81.31;100425.56;5206376;28;20087;-77
2023/01/02 11:27:00;;;;;;;10.63;1.90;;;;;;;14.96;81.27;100420.38;5206922;28;20025;-78
2023/01/02 11:29:33;;;;;;;11.02;2.35;;;;;;;14.89;81.93;100416.41;5211287;28;20140;-78
2023/01/02 11:32:03;;;;;;;8.40;2.25;;;;;;;14.89;82.74;100438.31;5209539;28;20041;-78
2023/01/02 11:34:39;;;;;;;9.25;2.10;;;;;;;14.82;83.75;100450.09;5185947;28;20041;-78
2023/01/02 11:37:16;;;;;;;11.30;3.80;;;;;;;14.62;85.51;100464.44;5215594;28;20025;-74
2023/01/02 11:40:24;;;;;;;7.05;2.10;;;;;;;14.29;92.66;100480.19;5187777;28;20028;-77
2023/01/02 11:45:50;;;;;;;8.52;2.20;;;;;;;13.80;99.90;100501.13;5206063;28;20418;-77
2023/01/02 11:48:23;;;;;;;14.25;2.10;;;;;;;13.70;100.00;100489.38;5217760;28;20149;-77
2023/01/02 11:50:53;;;;;;;11.60;2.20;;;;;;;13.59;100.00;100494.31;5190691;28;20402;-76
2023/01/02 11:53:34;;;;;;;6.47;1.60;;;;;;;13.50;100.00;100494.75;5204570;28;20021;-77